Time;durP1;ratioP1;P1;durP2;ratioP2;P2;SDS_P1;SDS_P2;PMS_P1;PMS_P2;Temp;Humidity;BMP_temperature;BMP_pressure;BME280_temperature;BME280_humidity;BME280_pressure;Samples;Min_cycle;Max_cycle;Signal;HPM_P1;HPM_P2
2021/12/02 00:01:16;;;;;;;8.77;1.80;;;4.70;99.90;;;;;;5133456;27;20045;-73
2021/12/02 00:03:46;;;;;;;9.80;1.88;;;4.70;99.90;;;;;;5134525;27;20028;-72
2021/12/02 00:06:14;;;;;;;9.40;2.45;;;4.70;99.90;;;;;;5132550;27;20084;-73
2021/12/02 00:08:40;;;;;;;9.70;2.10;;;4.60;99.90;;;;;;5134383;27;20039;-73
2021/12/02 00:11:06;;;;;;;8.57;1.92;;;4.60;99.90;;;;;;5133805;27;20043;-73
2021/12/02 00:13:54;;;;;;;8.48;1.73;;;4.60;99.90;;;;;;5134840;27;20031;-72
2021/12/02 00:16:53;;;;;;;9.18;1.58;;;4.60;99.90;;;;;;5132914;27;20085;-72
2021/12/02 00:22:05;;;;;;;7.30;1.27;;;4.50;99.90;;;;;;5134192;27;20476;-72
2021/12/02 00:24:34;;;;;;;6.53;1.75;;;4.50;99.90;;;;;;5134204;27;20480;-73
2021/12/02 00:27:03;;;;;;;8.95;2.13;;;4.40;99.90;;;;;;5133674;27;20043;-73
2021/12/02 00:29:30;;;;;;;6.72;1.58;;;4.40;99.90;;;;;;5134359;27;20027;-72
2021/12/02 00:32:02;;;;;;;7.75;1.58;;;4.40;99.90;;;;;;5134161;28;20469;-72
2021/12/02 00:34:29;;;;;;;9.93;1.48;;;4.30;99.90;;;;;;5134076;27;20081;-73
2021/12/02 00:36:57;;;;;;;8.55;1.27;;;4.30;99.90;;;;;;5133825;27;20039;-73
2021/12/02 00:39:23;;;;;;;8.63;1.52;;;4.30;99.90;;;;;;5134180;27;20065;-73
2021/12/02 00:41:49;;;;;;;8.82;1.98;;;4.30;99.90;;;;;;5134115;27;20031;-73
2021/12/02 00:44:16;;;;;;;6.43;1.40;;;4.30;99.90;;;;;;5134004;27;20031;-73
2021/12/02 00:46:43;;;;;;;6.57;1.30;;;4.20;99.90;;;;;;5133642;27;20039;-72
2021/12/02 00:49:14;;;;;;;10.57;1.30;;;4.20;99.90;;;;;;5133918;27;20043;-72
2021/12/02 00:51:43;;;;;;;6.15;1.65;;;4.20;99.90;;;;;;5132900;28;20035;-72
2021/12/02 00:54:12;;;;;;;3.30;0.95;;;4.20;99.90;;;;;;5134217;27;20536;-72
2021/12/02 00:56:38;;;;;;;3.97;1.30;;;4.20;99.90;;;;;;5133603;27;20054;-71
2021/12/02 00:59:05;;;;;;;5.00;0.95;;;4.20;99.90;;;;;;5132571;28;20054;-73
2021/12/02 01:01:34;;;;;;;12.50;1.58;;;4.20;99.90;;;;;;5134241;27;20400;-74
2021/12/02 01:04:02;;;;;;;9.13;1.67;;;4.30;99.90;;;;;;5134114;27;20039;-72
2021/12/02 01:06:28;;;;;;;8.00;1.75;;;4.30;99.90;;;;;;5133479;27;20049;-73
2021/12/02 01:08:54;;;;;;;4.32;1.73;;;4.40;99.90;;;;;;5133966;27;20102;-72
2021/12/02 01:11:21;;;;;;;8.93;1.52;;;4.50;99.90;;;;;;5132968;28;20031;-72
2021/12/02 01:13:47;;;;;;;9.30;1.48;;;4.50;99.90;;;;;;5134247;27;20088;-73
2021/12/02 01:16:13;;;;;;;10.05;1.65;;;4.50;99.90;;;;;;5132581;28;20119;-73
2021/12/02 01:18:40;;;;;;;6.43;1.85;;;4.50;99.90;;;;;;5136033;27;20031;-73
2021/12/02 01:21:05;;;;;;;7.95;1.60;;;4.50;99.90;;;;;;5136273;27;20043;-73
2021/12/02 01:23:33;;;;;;;10.30;1.33;;;4.50;99.90;;;;;;5137660;27;20040;-73
2021/12/02 01:26:01;;;;;;;6.95;1.63;;;4.50;99.90;;;;;;5137251;27;20059;-71
2021/12/02 01:28:28;;;;;;;8.32;1.45;;;4.50;99.90;;;;;;5137756;27;20047;-72
2021/12/02 01:30:54;;;;;;;8.23;1.83;;;4.50;99.90;;;;;;5136794;27;20047;-73
2021/12/02 01:33:21;;;;;;;5.57;1.00;;;4.50;99.90;;;;;;5137533;27;20034;-73
2021/12/02 01:35:54;;;;;;;6.53;1.52;;;4.60;99.90;;;;;;5136966;27;20428;-72
2021/12/02 01:38:22;;;;;;;3.58;1.30;;;4.70;99.90;;;;;;5137237;27;20039;-72
2021/12/02 01:40:48;;;;;;;5.43;0.95;;;4.60;99.90;;;;;;5135947;27;20043;-73
2021/12/02 01:43:19;;;;;;;6.35;0.90;;;4.70;99.90;;;;;;5137097;27;20396;-73
2021/12/02 01:45:45;;;;;;;5.63;1.77;;;4.60;99.90;;;;;;5137093;27;20043;-73
2021/12/02 01:48:16;;;;;;;5.18;1.05;;;4.70;99.90;;;;;;5118659;27;20043;-73
2021/12/02 01:50:43;;;;;;;3.58;0.93;;;4.60;99.90;;;;;;5137247;27;20072;-72
2021/12/02 01:53:15;;;;;;;8.73;1.88;;;4.70;99.90;;;;;;5137496;27;20031;-72
2021/12/02 01:55:43;;;;;;;5.60;1.05;;;4.70;99.90;;;;;;5136241;27;20039;-73
2021/12/02 01:58:15;;;;;;;6.75;0.93;;;4.60;99.90;;;;;;5136717;27;20050;-73
2021/12/02 02:00:44;;;;;;;6.80;1.10;;;4.50;99.90;;;;;;5137410;27;20060;-72
2021/12/02 02:03:11;;;;;;;7.72;0.93;;;4.50;99.90;;;;;;5135508;27;20105;-73
2021/12/02 02:05:38;;;;;;;8.80;1.13;;;4.40;99.90;;;;;;5136373;27;20043;-72
2021/12/02 02:08:21;;;;;;;6.00;0.70;;;4.30;99.90;;;;;;5136505;27;20047;-72
2021/12/02 02:10:47;;;;;;;8.45;0.93;;;4.30;99.90;;;;;;5136823;27;20035;-72
2021/12/02 02:13:13;;;;;;;5.18;0.80;;;4.20;99.90;;;;;;5136591;27;20035;-72
2021/12/02 02:15:44;;;;;;;1.58;0.50;;;4.10;99.90;;;;;;5136271;27;20043;-72
2021/12/02 02:18:18;;;;;;;4.38;1.02;;;4.10;99.90;;;;;;5118257;27;20457;-72
2021/12/02 02:21:03;;;;;;;8.23;1.30;;;4.00;99.90;;;;;;5136395;27;20039;-73
2021/12/02 02:23:37;;;;;;;4.88;0.68;;;4.00;99.90;;;;;;5136573;27;20397;-73
2021/12/02 02:26:04;;;;;;;3.95;1.13;;;3.90;99.90;;;;;;5136083;27;20096;-73
2021/12/02 02:28:31;;;;;;;8.23;1.15;;;3.90;99.90;;;;;;5134654;27;20126;-73
2021/12/02 02:30:57;;;;;;;5.10;1.88;;;3.90;99.90;;;;;;5136523;27;20061;-72
2021/12/02 02:33:23;;;;;;;4.65;0.70;;;3.90;99.90;;;;;;5136540;27;20492;-73
2021/12/02 02:35:49;;;;;;;4.03;0.65;;;3.90;99.90;;;;;;5136105;27;20039;-72
2021/12/02 02:38:16;;;;;;;6.72;1.25;;;3.80;99.90;;;;;;5134854;27;20046;-72
2021/12/02 02:40:45;;;;;;;8.18;1.52;;;3.80;99.90;;;;;;5136121;27;20494;-72
2021/12/02 02:43:19;;;;;;;3.95;0.82;;;3.80;99.90;;;;;;5136536;27;20031;-72
2021/12/02 02:45:45;;;;;;;6.70;1.02;;;3.80;99.90;;;;;;5135657;27;20035;-73
2021/12/02 02:48:11;;;;;;;3.10;0.77;;;3.80;99.90;;;;;;5134767;27;20043;-73
2021/12/02 02:50:36;;;;;;;7.25;1.80;;;3.80;99.90;;;;;;5117610;27;20454;-72
2021/12/02 02:53:10;;;;;;;5.70;1.85;;;3.80;99.90;;;;;;5134805;27;20031;-72
2021/12/02 02:55:36;;;;;;;;;;;3.80;99.90;;;;;;5135934;27;20039;-72
2021/12/02 03:00:35;;;;;;;2.65;0.80;;;3.90;99.90;;;;;;5134358;27;20126;-73
2021/12/02 03:06:25;;;;;;;6.20;2.45;;;3.90;99.90;;;;;;5075175;28;20048;-72
2021/12/02 03:09:00;;;;;;;3.35;1.30;;;3.90;99.90;;;;;;5075431;28;20086;-72
2021/12/02 03:11:28;;;;;;;4.38;0.77;;;4.00;99.90;;;;;;5112517;27;20051;-72
2021/12/02 03:13:54;;;;;;;2.10;0.80;;;4.00;99.90;;;;;;5135425;27;20507;-72
2021/12/02 03:19:05;;;;;;;3.65;0.90;;;4.00;99.90;;;;;;5134197;27;20039;-73
2021/12/02 03:21:30;;;;;;;1.83;0.73;;;4.00;99.90;;;;;;5135471;27;20037;-72
2021/12/02 03:23:59;;;;;;;4.20;0.88;;;4.00;99.90;;;;;;5133887;27;20042;-73
2021/12/02 03:26:26;;;;;;;3.60;0.77;;;4.00;99.90;;;;;;5133495;27;20130;-72
2021/12/02 03:28:52;;;;;;;3.55;0.80;;;4.00;99.90;;;;;;5135609;27;20099;-72
2021/12/02 03:31:18;;;;;;;4.85;0.60;;;4.00;99.90;;;;;;5135068;27;20027;-72
2021/12/02 03:33:44;;;;;;;4.18;0.60;;;4.00;99.90;;;;;;5134643;27;20408;-72
2021/12/02 03:36:11;;;;;;;3.17;0.50;;;4.00;99.90;;;;;;5134990;27;20118;-72
2021/12/02 03:38:37;;;;;;;2.00;0.50;;;4.00;99.90;;;;;;5116590;27;20093;-72
2021/12/02 03:41:04;;;;;;;3.40;0.30;;;3.90;99.90;;;;;;5134317;27;20039;-72
2021/12/02 03:43:37;;;;;;;1.30;0.30;;;3.80;99.90;;;;;;5134841;27;20500;-73
2021/12/02 03:46:03;;;;;;;1.95;0.60;;;3.80;99.90;;;;;;5134975;27;20396;-73
2021/12/02 03:48:28;;;;;;;2.03;0.47;;;3.70;99.90;;;;;;5116111;27;20435;-73
2021/12/02 03:50:54;;;;;;;2.10;0.50;;;3.70;99.90;;;;;;5134885;27;20035;-73
2021/12/02 03:53:20;;;;;;;2.85;0.45;;;3.60;99.90;;;;;;5133964;27;20039;-72
2021/12/02 03:55:45;;;;;;;0.93;0.40;;;3.60;99.90;;;;;;5116287;27;20463;-72
2021/12/02 03:58:11;;;;;;;3.83;0.40;;;3.60;99.90;;;;;;5134909;27;20043;-72
2021/12/02 04:00:36;;;;;;;2.72;0.88;;;3.60;99.90;;;;;;5134827;27;20430;-73
2021/12/02 04:03:02;;;;;;;0.85;0.30;;;3.60;99.90;;;;;;5134863;27;20085;-73
2021/12/02 04:05:28;;;;;;;0.90;0.30;;;3.60;99.90;;;;;;5134693;27;20363;-72
2021/12/02 04:07:53;;;;;;;0.47;0.20;;;3.50;99.90;;;;;;5132775;27;20047;-72
2021/12/02 04:10:20;;;;;;;1.55;0.30;;;3.50;99.90;;;;;;5134550;27;20042;-73
2021/12/02 04:15:32;;;;;;;4.03;1.67;;;3.50;99.90;;;;;;5134420;27;20043;-72
2021/12/02 04:17:58;;;;;;;0.45;0.20;;;3.50;99.90;;;;;;5134572;27;20132;-72
2021/12/02 04:20:25;;;;;;;0.70;0.45;;;3.40;99.90;;;;;;5134251;27;20043;-73
2021/12/02 04:22:52;;;;;;;4.05;0.30;;;3.40;99.90;;;;;;5134746;27;20035;-73
2021/12/02 04:25:19;;;;;;;2.33;0.40;;;3.40;99.90;;;;;;5134123;27;20035;-73
2021/12/02 04:27:45;;;;;;;0.95;0.30;;;3.40;99.90;;;;;;5133728;27;20039;-73
2021/12/02 04:30:13;;;;;;;3.60;0.68;;;3.30;99.90;;;;;;5134135;27;20047;-72
2021/12/02 04:32:39;;;;;;;1.55;0.40;;;3.30;99.90;;;;;;5132945;28;20117;-72
2021/12/02 04:35:06;;;;;;;0.90;0.32;;;3.30;99.90;;;;;;5134420;27;20114;-72
2021/12/02 04:37:32;;;;;;;3.55;0.55;;;3.30;99.90;;;;;;5133833;27;20046;-72
2021/12/02 04:39:57;;;;;;;1.77;0.40;;;3.20;99.90;;;;;;5134146;28;20404;-72
2021/12/02 04:42:23;;;;;;;2.20;0.32;;;3.10;99.90;;;;;;5134015;28;20431;-73
2021/12/02 04:44:49;;;;;;;4.53;0.45;;;3.10;99.90;;;;;;5134051;27;20377;-72
2021/12/02 04:47:15;;;;;;;1.75;0.57;;;3.20;99.90;;;;;;5133849;28;20043;-72
2021/12/02 04:49:41;;;;;;;4.40;0.80;;;3.20;99.90;;;;;;5134296;28;20380;-71
2021/12/02 04:52:07;;;;;;;4.47;0.68;;;3.20;99.90;;;;;;5136042;27;20039;-73
2021/12/02 04:54:33;;;;;;;3.08;0.70;;;3.20;99.90;;;;;;5138737;27;20046;-72
2021/12/02 04:56:59;;;;;;;2.33;0.60;;;3.20;99.90;;;;;;5137605;27;20035;-72
2021/12/02 04:59:25;;;;;;;1.10;0.50;;;3.10;99.90;;;;;;5138378;27;20043;-71
2021/12/02 05:01:51;;;;;;;3.20;0.55;;;3.00;99.90;;;;;;5136751;27;20035;-72
2021/12/02 05:04:17;;;;;;;1.38;0.50;;;2.90;99.90;;;;;;5138036;27;20506;-71
2021/12/02 05:06:42;;;;;;;1.13;0.60;;;2.90;99.90;;;;;;5136202;27;20049;-72
2021/12/02 05:09:08;;;;;;;2.70;0.45;;;2.90;99.90;;;;;;5136643;27;20078;-72
2021/12/02 05:11:34;;;;;;;1.35;0.60;;;2.90;99.90;;;;;;5137793;27;20035;-72
2021/12/02 05:14:00;;;;;;;2.25;0.52;;;2.90;99.90;;;;;;5137877;27;20106;-72
2021/12/02 05:16:26;;;;;;;2.78;0.63;;;2.90;99.90;;;;;;5136403;27;20035;-72
2021/12/02 05:18:52;;;;;;;5.80;0.70;;;2.90;99.90;;;;;;5136485;27;20035;-72
2021/12/02 05:21:18;;;;;;;1.35;0.98;;;2.90;99.90;;;;;;5136590;27;20031;-72
2021/12/02 05:23:44;;;;;;;4.97;1.55;;;2.90;99.90;;;;;;5136457;27;20518;-72
2021/12/02 05:26:10;;;;;;;3.88;1.42;;;2.90;99.90;;;;;;5137085;27;20075;-73
2021/12/02 05:28:36;;;;;;;4.25;1.35;;;2.90;99.90;;;;;;5136415;27;20070;-72
2021/12/02 05:31:02;;;;;;;3.60;1.05;;;2.90;99.90;;;;;;5136361;27;20035;-72
2021/12/02 05:33:28;;;;;;;1.25;0.60;;;2.80;99.90;;;;;;5136134;27;20080;-72
2021/12/02 05:35:54;;;;;;;2.65;0.80;;;2.90;99.90;;;;;;5137013;27;20039;-72
2021/12/02 05:38:19;;;;;;;3.47;1.67;;;2.90;99.90;;;;;;5136245;27;20047;-72
2021/12/02 05:40:45;;;;;;;1.83;0.75;;;2.80;99.90;;;;;;5137872;27;20419;-73
2021/12/02 05:43:11;;;;;;;2.53;0.80;;;2.80;99.90;;;;;;5137347;27;20042;-72
2021/12/02 05:45:36;;;;;;;2.70;0.88;;;2.80;99.90;;;;;;5137222;27;20040;-72
2021/12/02 05:48:02;;;;;;;4.18;0.75;;;2.80;99.90;;;;;;5137085;27;20411;-72
2021/12/02 05:50:28;;;;;;;2.05;1.23;;;2.80;99.90;;;;;;5136500;27;20448;-71
2021/12/02 05:52:53;;;;;;;2.08;0.52;;;2.70;99.90;;;;;;5137243;27;20119;-71
2021/12/02 05:55:19;;;;;;;4.65;0.82;;;2.60;99.90;;;;;;5136132;27;20126;-72
2021/12/02 05:57:45;;;;;;;3.10;0.70;;;2.50;99.90;;;;;;5136624;27;20046;-71
2021/12/02 06:00:11;;;;;;;2.70;0.68;;;2.50;99.90;;;;;;5137253;27;20043;-72
2021/12/02 06:02:37;;;;;;;1.63;0.63;;;2.50;99.90;;;;;;5137122;27;20043;-72
2021/12/02 06:05:04;;;;;;;1.00;0.50;;;2.40;99.90;;;;;;5136401;27;20042;-72
2021/12/02 06:07:31;;;;;;;3.70;0.50;;;2.40;99.90;;;;;;5136283;27;20046;-72
2021/12/02 06:09:57;;;;;;;2.50;0.60;;;2.30;99.90;;;;;;5137322;27;20076;-71
2021/12/02 06:12:22;;;;;;;2.53;0.70;;;2.30;99.90;;;;;;5136618;27;20078;-71
2021/12/02 06:14:48;;;;;;;2.45;0.80;;;2.30;99.90;;;;;;5136639;27;20484;-72
2021/12/02 06:17:14;;;;;;;3.08;0.60;;;2.30;99.90;;;;;;5136595;27;20043;-71
2021/12/02 06:19:39;;;;;;;1.27;0.82;;;2.30;99.90;;;;;;5136994;27;20031;-71
2021/12/02 06:22:05;;;;;;;0.95;0.65;;;2.30;99.90;;;;;;5135428;27;20043;-72
2021/12/02 06:24:42;;;;;;;2.75;0.60;;;2.30;99.90;;;;;;5135282;27;20070;-72
2021/12/02 06:27:07;;;;;;;2.67;0.88;;;2.30;99.90;;;;;;5136133;27;20125;-72
2021/12/02 06:29:33;;;;;;;1.50;0.47;;;2.30;99.90;;;;;;5135631;27;20081;-71
2021/12/02 06:31:59;;;;;;;2.20;0.60;;;2.30;99.90;;;;;;5136290;27;20027;-72
2021/12/02 06:34:24;;;;;;;0.73;0.50;;;2.30;99.90;;;;;;5134875;27;20039;-72
2021/12/02 06:36:50;;;;;;;1.30;0.65;;;2.30;99.90;;;;;;5135913;27;20433;-71
2021/12/02 06:39:15;;;;;;;3.03;0.82;;;2.40;99.90;;;;;;5136499;27;20772;-71
2021/12/02 06:41:41;;;;;;;2.42;0.50;;;2.40;99.90;;;;;;5136044;27;20118;-70
2021/12/02 06:44:07;;;;;;;1.30;0.85;;;2.30;99.90;;;;;;5136173;27;20038;-71
2021/12/02 06:46:32;;;;;;;0.52;0.40;;;2.30;99.90;;;;;;5134249;27;20122;-71
2021/12/02 06:48:59;;;;;;;3.05;0.77;;;2.30;99.90;;;;;;5134708;27;20408;-71
2021/12/02 06:51:26;;;;;;;3.90;1.08;;;2.30;99.90;;;;;;5134595;27;20400;-71
2021/12/02 06:53:52;;;;;;;1.70;0.60;;;2.20;99.90;;;;;;5134609;27;20046;-71
2021/12/02 06:56:17;;;;;;;2.63;0.52;;;2.30;99.90;;;;;;5135490;27;20050;-71
2021/12/02 06:58:43;;;;;;;2.08;0.60;;;2.30;99.90;;;;;;5135883;27;20404;-71
2021/12/02 07:01:09;;;;;;;2.15;0.50;;;2.40;99.90;;;;;;5135870;27;20507;-72
2021/12/02 07:03:34;;;;;;;1.10;0.30;;;2.20;99.90;;;;;;5136354;27;20522;-71
2021/12/02 07:06:00;;;;;;;2.20;0.47;;;2.20;99.90;;;;;;5135652;27;20035;-72
2021/12/02 07:08:26;;;;;;;2.10;0.50;;;2.20;99.90;;;;;;5134794;27;20035;-72
2021/12/02 07:10:52;;;;;;;0.45;0.25;;;2.20;99.90;;;;;;5135792;27;20504;-71
2021/12/02 07:13:17;;;;;;;0.77;0.20;;;2.10;99.90;;;;;;5134763;27;20046;-72
2021/12/02 07:15:53;;;;;;;2.13;0.40;;;2.10;99.90;;;;;;5135297;27;20043;-71
2021/12/02 07:18:20;;;;;;;1.17;0.40;;;2.10;99.90;;;;;;5135383;27;20045;-71
2021/12/02 07:20:48;;;;;;;0.63;0.22;;;2.10;99.90;;;;;;5135542;27;20067;-72
2021/12/02 07:23:15;;;;;;;1.17;0.35;;;2.00;99.90;;;;;;5135545;27;20047;-71
2021/12/02 07:25:42;;;;;;;1.80;0.70;;;2.00;99.90;;;;;;5134888;27;20099;-72
2021/12/02 07:28:12;;;;;;;0.57;0.40;;;2.00;99.90;;;;;;5135508;27;20100;-72
2021/12/02 07:30:38;;;;;;;0.77;0.40;;;2.00;99.90;;;;;;5135175;27;20104;-72
2021/12/02 07:33:07;;;;;;;2.22;0.68;;;2.00;99.90;;;;;;5135124;27;20553;-70
2021/12/02 07:35:33;;;;;;;2.15;0.50;;;2.00;99.90;;;;;;5134792;27;20043;-72
2021/12/02 07:38:00;;;;;;;1.77;0.60;;;2.00;99.90;;;;;;5134935;27;20043;-72
2021/12/02 07:40:28;;;;;;;1.75;0.45;;;2.10;99.90;;;;;;5134952;27;20035;-72
2021/12/02 07:42:55;;;;;;;3.10;0.60;;;2.00;99.90;;;;;;5133990;27;20468;-72
2021/12/02 07:45:23;;;;;;;3.35;0.80;;;2.00;99.90;;;;;;5135121;27;20050;-71
2021/12/02 07:47:50;;;;;;;1.20;0.50;;;2.00;99.90;;;;;;5133376;27;20104;-72
2021/12/02 07:50:17;;;;;;;3.13;0.70;;;2.10;99.90;;;;;;5134972;27;20065;-71
2021/12/02 07:52:54;;;;;;;1.33;0.60;;;2.00;99.90;;;;;;5135006;27;20035;-71
2021/12/02 07:55:22;;;;;;;4.38;0.75;;;2.10;99.90;;;;;;5133625;27;20035;-71
2021/12/02 07:57:48;;;;;;;2.97;0.77;;;2.10;99.90;;;;;;5134269;27;20051;-71
2021/12/02 08:00:36;;;;;;;1.38;0.63;;;2.00;99.90;;;;;;5134502;27;20039;-72
2021/12/02 08:03:06;;;;;;;0.70;0.50;;;2.00;99.90;;;;;;5132770;27;20043;-71
2021/12/02 08:05:32;;;;;;;1.30;0.70;;;2.00;99.90;;;;;;5134518;27;20437;-71
2021/12/02 08:07:57;;;;;;;3.33;1.60;;;2.00;99.90;;;;;;5134457;27;20047;-71
2021/12/02 08:10:23;;;;;;;1.15;0.93;;;2.00;99.90;;;;;;5134739;27;20550;-71
2021/12/02 08:12:50;;;;;;;1.58;0.60;;;2.00;99.90;;;;;;5134535;27;20035;-71
2021/12/02 08:15:23;;;;;;;2.05;1.00;;;2.10;99.90;;;;;;5133168;27;20054;-71
2021/12/02 08:17:50;;;;;;;3.50;0.80;;;2.10;99.90;;;;;;5132889;27;20060;-68
2021/12/02 08:20:17;;;;;;;3.13;1.30;;;2.20;99.90;;;;;;5133312;27;20468;-69
2021/12/02 08:22:43;;;;;;;3.38;1.00;;;2.20;99.90;;;;;;5132907;27;20498;-70
2021/12/02 08:25:09;;;;;;;2.97;1.10;;;2.20;99.90;;;;;;5133137;27;20039;-70
2021/12/02 08:27:35;;;;;;;3.08;1.42;;;2.30;99.90;;;;;;5133312;27;20043;-70
2021/12/02 08:30:03;;;;;;;2.30;1.00;;;2.30;99.90;;;;;;5134530;27;20472;-70
2021/12/02 08:32:29;;;;;;;3.05;1.20;;;2.40;99.90;;;;;;5132928;28;20035;-73
2021/12/02 08:34:57;;;;;;;12.00;1.85;;;2.40;99.90;;;;;;5134431;27;20039;-70
2021/12/02 08:37:24;;;;;;;3.15;1.60;;;2.50;99.90;;;;;;5133688;27;20043;-70
2021/12/02 08:39:50;;;;;;;2.72;1.60;;;2.60;99.90;;;;;;5132694;28;20035;-71
2021/12/02 08:42:16;;;;;;;3.13;2.00;;;2.60;99.90;;;;;;5134018;27;20043;-70
2021/12/02 08:44:43;;;;;;;4.20;1.63;;;2.60;99.90;;;;;;5115735;28;20079;-71
2021/12/02 08:47:09;;;;;;;3.40;2.10;;;2.60;99.90;;;;;;5132340;28;20047;-69
2021/12/02 08:49:35;;;;;;;1.92;1.48;;;2.60;99.90;;;;;;5134051;27;20051;-70
2021/12/02 08:52:01;;;;;;;4.93;2.00;;;2.60;99.90;;;;;;5133213;28;20122;-70
2021/12/02 08:54:27;;;;;;;3.78;2.22;;;2.70;99.90;;;;;;5134168;28;20035;-70
2021/12/02 08:56:54;;;;;;;5.70;2.05;;;2.70;99.90;;;;;;5133782;28;20043;-70
2021/12/02 08:59:20;;;;;;;3.90;2.03;;;2.80;99.90;;;;;;5132506;28;20039;-70
2021/12/02 09:01:47;;;;;;;3.17;1.95;;;2.80;99.90;;;;;;5133937;28;20045;-69
2021/12/02 09:04:12;;;;;;;4.22;2.20;;;2.90;99.90;;;;;;5134055;27;20035;-70
2021/12/02 09:06:38;;;;;;;4.13;2.47;;;2.90;99.90;;;;;;5133338;28;20499;-71
2021/12/02 09:09:04;;;;;;;5.93;2.50;;;3.00;99.90;;;;;;5132759;28;20043;-70
2021/12/02 09:11:31;;;;;;;5.60;2.28;;;3.00;99.90;;;;;;5133748;27;20597;-70
2021/12/02 09:13:58;;;;;;;3.97;2.47;;;3.10;99.90;;;;;;5134388;27;20384;-70
2021/12/02 09:16:25;;;;;;;5.78;2.35;;;3.10;99.90;;;;;;5133378;27;20093;-71
2021/12/02 09:18:51;;;;;;;4.35;2.22;;;3.20;99.90;;;;;;5133886;27;20071;-70
2021/12/02 09:21:17;;;;;;;4.80;2.40;;;3.20;99.90;;;;;;5133567;27;20162;-70
2021/12/02 09:23:43;;;;;;;4.80;2.47;;;3.30;99.90;;;;;;5116069;28;20043;-71
2021/12/02 09:26:08;;;;;;;6.45;2.83;;;3.30;99.90;;;;;;5133300;27;20490;-70
2021/12/02 09:28:34;;;;;;;5.68;3.08;;;3.30;99.90;;;;;;5133707;28;20530;-70
2021/12/02 09:31:00;;;;;;;6.47;2.70;;;3.40;99.90;;;;;;5133475;27;20043;-70
2021/12/02 09:33:26;;;;;;;7.20;2.97;;;3.50;99.90;;;;;;5133901;27;20027;-70
2021/12/02 09:35:51;;;;;;;8.00;3.05;;;3.50;99.90;;;;;;5133164;28;20110;-72
2021/12/02 09:38:17;;;;;;;4.65;2.95;;;3.50;99.90;;;;;;5134005;27;20384;-72
2021/12/02 09:40:44;;;;;;;5.85;2.83;;;3.50;99.90;;;;;;5135870;27;20122;-72
2021/12/02 09:43:11;;;;;;;4.70;2.97;;;3.40;99.90;;;;;;5137500;27;20031;-73
2021/12/02 09:45:39;;;;;;;5.03;2.90;;;3.50;99.90;;;;;;5136806;27;20050;-73
2021/12/02 09:48:05;;;;;;;7.88;3.90;;;3.60;99.90;;;;;;5136955;27;20039;-72
2021/12/02 09:50:35;;;;;;;7.88;3.40;;;3.60;99.90;;;;;;5137096;27;20040;-72
2021/12/02 09:53:09;;;;;;;6.93;3.40;;;3.60;99.90;;;;;;5137058;27;20062;-72
2021/12/02 09:58:08;;;;;;;7.68;2.40;;;3.60;99.90;;;;;;5137096;27;20512;-72
2021/12/02 10:00:49;;;;;;;6.32;2.15;;;3.60;99.90;;;;;;5135478;27;20046;-72
2021/12/02 10:05:54;;;;;;;3.17;0.73;;;3.30;99.90;;;;;;5135109;27;20058;-73
2021/12/02 10:08:26;;;;;;;2.63;0.40;;;3.20;99.90;;;;;;5118279;27;20039;-72
2021/12/02 10:11:04;;;;;;;1.83;0.50;;;3.00;99.90;;;;;;5136817;27;20042;-73
2021/12/02 10:13:42;;;;;;;3.38;0.90;;;2.60;99.90;;;;;;5135612;27;20050;-72
2021/12/02 10:16:31;;;;;;;2.28;0.40;;;2.50;99.90;;;;;;5134935;27;20387;-73
2021/12/02 10:19:06;;;;;;;0.63;0.30;;;2.30;99.90;;;;;;5137092;27;20031;-73
2021/12/02 10:21:39;;;;;;;2.47;0.93;;;2.20;99.90;;;;;;5137067;27;20461;-73
2021/12/02 10:24:11;;;;;;;1.15;0.40;;;2.10;99.90;;;;;;5136491;27;20042;-74
2021/12/02 10:26:40;;;;;;;1.48;0.70;;;2.20;99.90;;;;;;5135901;27;20122;-74
2021/12/02 10:29:13;;;;;;;1.20;0.63;;;2.20;99.90;;;;;;5136548;27;20121;-74
2021/12/02 10:31:39;;;;;;;2.23;1.33;;;2.20;99.90;;;;;;5136614;27;20446;-74
2021/12/02 10:34:07;;;;;;;1.70;0.70;;;2.20;99.90;;;;;;5136169;27;20291;-74
2021/12/02 10:36:42;;;;;;;1.70;0.80;;;2.30;99.90;;;;;;5135890;27;20114;-74
2021/12/02 10:39:17;;;;;;;2.95;0.63;;;2.30;99.90;;;;;;5136195;27;20035;-74
2021/12/02 10:41:44;;;;;;;1.30;0.85;;;2.30;99.90;;;;;;5136299;27;20083;-74
2021/12/02 10:44:13;;;;;;;3.97;0.90;;;2.30;99.90;;;;;;5136080;27;20043;-74
2021/12/02 10:46:53;;;;;;;2.40;0.85;;;2.30;99.90;;;;;;5135615;27;20047;-73
2021/12/02 10:49:20;;;;;;;2.97;0.77;;;2.40;99.90;;;;;;5134275;27;20046;-74
2021/12/02 10:51:51;;;;;;;2.60;1.00;;;2.40;99.90;;;;;;5136031;27;20062;-74
2021/12/02 10:54:29;;;;;;;3.72;1.00;;;2.50;99.90;;;;;;5134887;27;20051;-73
2021/12/02 10:57:00;;;;;;;2.70;1.30;;;2.60;99.90;;;;;;5135417;27;20039;-73
2021/12/02 10:59:26;;;;;;;2.42;1.08;;;2.60;99.90;;;;;;5134389;27;20058;-73
2021/12/02 11:01:53;;;;;;;3.40;0.88;;;2.60;99.90;;;;;;5135754;27;20039;-73
2021/12/02 11:04:20;;;;;;;2.35;0.70;;;2.60;99.90;;;;;;5134600;27;20039;-73
2021/12/02 11:06:48;;;;;;;3.03;1.20;;;2.60;99.90;;;;;;5133955;27;20035;-73
2021/12/02 11:09:33;;;;;;;1.60;1.02;;;2.60;99.90;;;;;;5135815;27;20035;-72
2021/12/02 11:12:16;;;;;;;3.08;1.45;;;2.60;99.90;;;;;;5134100;27;20099;-73
2021/12/02 11:15:06;;;;;;;4.05;2.05;;;2.60;99.90;;;;;;5134715;27;20039;-72
2021/12/02 11:17:53;;;;;;;5.82;2.20;;;2.60;99.90;;;;;;5126103;27;20051;-72
2021/12/02 11:20:31;;;;;;;3.47;2.30;;;2.60;99.90;;;;;;5134877;27;20054;-72
2021/12/02 11:23:09;;;;;;;4.10;2.05;;;2.50;99.90;;;;;;5135205;27;20050;-72
2021/12/02 11:25:39;;;;;;;3.28;1.20;;;2.50;99.90;;;;;;5134598;27;20039;-72
2021/12/02 11:28:07;;;;;;;3.63;1.20;;;2.30;99.90;;;;;;5135012;27;20043;-72
2021/12/02 11:30:34;;;;;;;1.67;0.95;;;2.30;99.90;;;;;;5134087;27;20038;-72
2021/12/02 11:33:09;;;;;;;3.20;1.10;;;2.30;99.90;;;;;;5135236;27;20031;-73
2021/12/02 11:35:40;;;;;;;2.40;0.82;;;2.40;99.90;;;;;;5116481;27;20066;-73
2021/12/02 11:38:23;;;;;;;5.30;0.80;;;2.50;99.90;;;;;;5135443;27;20125;-73
2021/12/02 11:40:58;;;;;;;1.40;0.88;;;2.60;99.90;;;;;;5135398;27;20043;-73
2021/12/02 11:43:27;;;;;;;2.67;1.05;;;2.70;99.90;;;;;;5135424;27;20050;-74
2021/12/02 11:45:55;;;;;;;2.72;1.23;;;2.80;99.90;;;;;;5134988;27;20415;-73
2021/12/02 11:48:27;;;;;;;2.38;1.00;;;2.90;99.90;;;;;;5134919;27;20035;-72
2021/12/02 11:50:55;;;;;;;2.58;1.00;;;3.00;99.90;;;;;;5134914;27;20527;-73
2021/12/02 11:53:22;;;;;;;2.33;1.27;;;3.00;99.90;;;;;;5134936;27;20039;-73
2021/12/02 11:55:51;;;;;;;1.65;0.90;;;3.10;99.90;;;;;;5134414;27;20047;-73
2021/12/02 11:58:17;;;;;;;5.45;1.25;;;3.10;99.90;;;;;;5134772;27;20384;-73
2021/12/02 12:00:44;;;;;;;3.00;1.35;;;3.00;99.90;;;;;;5133307;27;20388;-73
2021/12/02 12:03:20;;;;;;;2.22;1.23;;;3.00;99.90;;;;;;5115877;27;20108;-72
2021/12/02 12:05:54;;;;;;;5.03;1.30;;;3.10;99.90;;;;;;5132971;27;20087;-73
2021/12/02 12:08:38;;;;;;;4.80;1.42;;;3.10;99.90;;;;;;5134512;27;20035;-72
2021/12/02 12:11:33;;;;;;;2.17;1.80;;;3.20;99.90;;;;;;5133206;27;20095;-73
2021/12/02 12:14:04;;;;;;;3.47;1.60;;;3.10;99.90;;;;;;5134434;27;20035;-72
2021/12/02 12:16:38;;;;;;;3.15;1.27;;;3.10;99.90;;;;;;5133912;27;20114;-73
2021/12/02 12:19:20;;;;;;;3.67;1.17;;;3.10;99.90;;;;;;5135116;27;20046;-72
2021/12/02 12:21:56;;;;;;;2.63;1.35;;;3.10;99.90;;;;;;5134272;27;20467;-72
2021/12/02 12:24:43;;;;;;;2.13;1.30;;;3.00;99.90;;;;;;5134264;27;20498;-73
2021/12/02 12:27:28;;;;;;;5.35;1.70;;;3.00;99.90;;;;;;5123679;27;20047;-72
2021/12/02 12:30:08;;;;;;;2.72;1.20;;;2.70;99.90;;;;;;5134591;27;20464;-73
2021/12/02 12:32:45;;;;;;;3.83;1.92;;;2.70;99.90;;;;;;5134728;27;20424;-73
2021/12/02 12:35:24;;;;;;;2.60;1.10;;;2.70;99.90;;;;;;5134140;27;20123;-73
2021/12/02 12:37:52;;;;;;;0.77;0.47;;;2.70;99.90;;;;;;5132821;28;20419;-73
2021/12/02 12:40:28;;;;;;;1.10;0.50;;;2.50;99.90;;;;;;5134537;27;20054;-73
2021/12/02 12:43:02;;;;;;;0.50;0.50;;;2.40;99.90;;;;;;5134449;27;20046;-73
2021/12/02 12:45:28;;;;;;;0.80;0.40;;;2.40;99.90;;;;;;5133922;28;20552;-73
2021/12/02 12:47:58;;;;;;;0.57;0.30;;;2.20;99.90;;;;;;5133483;28;20043;-73
2021/12/02 12:50:28;;;;;;;0.40;0.30;;;2.20;99.90;;;;;;5133929;27;20393;-73
2021/12/02 12:53:17;;;;;;;0.32;0.30;;;2.20;99.90;;;;;;5134177;28;20031;-73
2021/12/02 12:55:49;;;;;;;0.43;0.40;;;2.20;99.90;;;;;;5132395;27;20099;-73
2021/12/02 12:58:30;;;;;;;1.15;0.45;;;2.20;99.90;;;;;;5133760;27;20054;-73
2021/12/02 13:01:21;;;;;;;0.30;0.30;;;2.20;99.90;;;;;;5132613;27;20043;-73
2021/12/02 13:04:10;;;;;;;0.40;0.30;;;2.20;99.90;;;;;;5132607;28;20100;-73
2021/12/02 13:07:06;;;;;;;1.88;0.82;;;2.10;99.90;;;;;;5132518;27;20055;-73
2021/12/02 13:10:13;;;;;;;1.20;0.60;;;2.10;99.90;;;;;;5133602;27;20047;-69
2021/12/02 13:12:58;;;;;;;0.35;0.32;;;2.40;99.90;;;;;;5116623;27;20062;-73
2021/12/02 13:15:27;;;;;;;0.80;0.50;;;2.40;99.90;;;;;;5136415;27;20123;-69
2021/12/02 13:17:56;;;;;;;0.40;0.40;;;2.60;99.90;;;;;;5137107;27;20039;-70
2021/12/02 13:20:26;;;;;;;0.68;0.50;;;2.70;99.90;;;;;;5136982;27;20430;-70
2021/12/02 13:23:16;;;;;;;1.02;0.60;;;2.80;99.90;;;;;;5135877;27;20042;-71
2021/12/02 13:25:51;;;;;;;2.47;0.90;;;2.80;99.90;;;;;;5135908;27;20121;-70
2021/12/02 13:28:40;;;;;;;2.33;0.65;;;2.80;99.90;;;;;;5137602;27;20078;-70